sensor_id;sensor_type;location;lat;lon;timestamp;P1;durP1;ratioP1;P2;durP2;ratioP2
23288;SDS011;11813;50.834;4.280;2023-04-06T00:01:06;30.30;;;14.53;;
23288;SDS011;11813;50.834;4.280;2023-04-06T00:03:32;21.27;;;13.23;;
23288;SDS011;11813;50.834;4.280;2023-04-06T00:05:58;24.10;;;13.80;;
23288;SDS011;11813;50.834;4.280;2023-04-06T00:08:24;26.03;;;12.20;;
23288;SDS011;11813;50.834;4.280;2023-04-06T00:10:50;25.83;;;12.53;;
23288;SDS011;11813;50.834;4.280;2023-04-06T00:13:16;23.27;;;13.23;;
23288;SDS011;11813;50.834;4.280;2023-04-06T00:15:41;24.63;;;12.83;;
23288;SDS011;11813;50.834;4.280;2023-04-06T00:18:07;32.13;;;12.23;;
23288;SDS011;11813;50.834;4.280;2023-04-06T00:20:33;26.47;;;12.10;;
23288;SDS011;11813;50.834;4.280;2023-04-06T00:22:58;31.43;;;13.10;;
23288;SDS011;11813;50.834;4.280;2023-04-06T00:25:24;21.53;;;12.33;;
23288;SDS011;11813;50.834;4.280;2023-04-06T00:27:50;21.90;;;12.63;;
23288;SDS011;11813;50.834;4.280;2023-04-06T00:30:16;21.93;;;13.00;;
23288;SDS011;11813;50.834;4.280;2023-04-06T00:32:41;29.03;;;12.53;;
23288;SDS011;11813;50.834;4.280;2023-04-06T00:35:07;23.80;;;12.20;;
23288;SDS011;11813;50.834;4.280;2023-04-06T00:37:33;26.07;;;13.40;;
23288;SDS011;11813;50.834;4.280;2023-04-06T00:40:00;22.47;;;11.70;;
23288;SDS011;11813;50.834;4.280;2023-04-06T00:42:26;26.57;;;12.93;;
23288;SDS011;11813;50.834;4.280;2023-04-06T00:44:52;24.70;;;12.73;;
23288;SDS011;11813;50.834;4.280;2023-04-06T00:47:22;23.37;;;12.63;;
23288;SDS011;11813;50.834;4.280;2023-04-06T00:49:50;19.90;;;12.37;;
23288;SDS011;11813;50.834;4.280;2023-04-06T00:52:17;28.57;;;13.20;;
23288;SDS011;11813;50.834;4.280;2023-04-06T00:54:43;25.27;;;12.57;;
23288;SDS011;11813;50.834;4.280;2023-04-06T00:57:09;19.77;;;11.77;;
23288;SDS011;11813;50.834;4.280;2023-04-06T00:59:38;24.73;;;13.30;;
23288;SDS011;11813;50.834;4.280;2023-04-06T01:02:05;25.13;;;12.77;;
23288;SDS011;11813;50.834;4.280;2023-04-06T01:04:31;21.10;;;12.73;;
23288;SDS011;11813;50.834;4.280;2023-04-06T01:06:57;24.80;;;14.00;;
23288;SDS011;11813;50.834;4.280;2023-04-06T01:09:23;25.80;;;13.60;;
23288;SDS011;11813;50.834;4.280;2023-04-06T01:11:49;24.57;;;13.50;;
23288;SDS011;11813;50.834;4.280;2023-04-06T01:14:14;22.37;;;13.07;;
23288;SDS011;11813;50.834;4.280;2023-04-06T01:16:40;22.17;;;13.20;;
23288;SDS011;11813;50.834;4.280;2023-04-06T01:19:08;26.00;;;13.60;;
23288;SDS011;11813;50.834;4.280;2023-04-06T01:21:37;24.37;;;12.63;;
23288;SDS011;11813;50.834;4.280;2023-04-06T01:24:03;26.27;;;13.07;;
23288;SDS011;11813;50.834;4.280;2023-04-06T01:26:30;22.60;;;13.33;;
23288;SDS011;11813;50.834;4.280;2023-04-06T01:28:56;22.17;;;12.83;;
23288;SDS011;11813;50.834;4.280;2023-04-06T01:31:22;24.47;;;12.90;;
23288;SDS011;11813;50.834;4.280;2023-04-06T01:33:48;35.67;;;13.57;;
23288;SDS011;11813;50.834;4.280;2023-04-06T01:36:14;28.57;;;14.17;;
23288;SDS011;11813;50.834;4.280;2023-04-06T01:38:40;23.97;;;13.33;;
23288;SDS011;11813;50.834;4.280;2023-04-06T01:41:06;38.70;;;14.23;;
23288;SDS011;11813;50.834;4.280;2023-04-06T01:43:32;23.73;;;13.77;;
23288;SDS011;11813;50.834;4.280;2023-04-06T01:45:58;22.83;;;13.40;;
23288;SDS011;11813;50.834;4.280;2023-04-06T01:48:23;26.33;;;13.00;;
23288;SDS011;11813;50.834;4.280;2023-04-06T01:50:49;21.03;;;12.73;;
23288;SDS011;11813;50.834;4.280;2023-04-06T01:53:15;25.17;;;13.40;;
23288;SDS011;11813;50.834;4.280;2023-04-06T01:55:41;21.43;;;12.57;;
23288;SDS011;11813;50.834;4.280;2023-04-06T01:58:06;22.10;;;12.87;;
23288;SDS011;11813;50.834;4.280;2023-04-06T02:00:32;22.40;;;13.10;;
23288;SDS011;11813;50.834;4.280;2023-04-06T02:02:58;23.23;;;12.63;;
23288;SDS011;11813;50.834;4.280;2023-04-06T02:05:24;22.63;;;12.73;;
23288;SDS011;11813;50.834;4.280;2023-04-06T02:07:50;27.40;;;12.30;;
23288;SDS011;11813;50.834;4.280;2023-04-06T02:10:16;23.33;;;12.73;;
23288;SDS011;11813;50.834;4.280;2023-04-06T02:12:42;24.53;;;13.17;;
23288;SDS011;11813;50.834;4.280;2023-04-06T02:15:08;22.67;;;13.53;;
23288;SDS011;11813;50.834;4.280;2023-04-06T02:17:34;29.43;;;14.80;;
23288;SDS011;11813;50.834;4.280;2023-04-06T02:20:00;20.23;;;12.20;;
23288;SDS011;11813;50.834;4.280;2023-04-06T02:22:25;25.50;;;14.03;;
23288;SDS011;11813;50.834;4.280;2023-04-06T02:24:51;25.20;;;13.33;;
23288;SDS011;11813;50.834;4.280;2023-04-06T02:27:17;22.17;;;12.50;;
23288;SDS011;11813;50.834;4.280;2023-04-06T02:29:42;37.30;;;13.67;;
23288;SDS011;11813;50.834;4.280;2023-04-06T02:32:08;30.80;;;13.17;;
23288;SDS011;11813;50.834;4.280;2023-04-06T02:34:33;22.83;;;12.87;;
23288;SDS011;11813;50.834;4.280;2023-04-06T02:36:59;30.07;;;14.03;;
23288;SDS011;11813;50.834;4.280;2023-04-06T02:39:25;21.50;;;13.17;;
23288;SDS011;11813;50.834;4.280;2023-04-06T02:41:51;25.70;;;13.83;;
23288;SDS011;11813;50.834;4.280;2023-04-06T02:44:16;34.03;;;13.00;;
23288;SDS011;11813;50.834;4.280;2023-04-06T02:46:42;30.87;;;12.63;;
23288;SDS011;11813;50.834;4.280;2023-04-06T02:49:07;21.50;;;14.27;;
23288;SDS011;11813;50.834;4.280;2023-04-06T02:51:33;24.03;;;13.80;;
23288;SDS011;11813;50.834;4.280;2023-04-06T02:53:59;22.73;;;13.27;;
23288;SDS011;11813;50.834;4.280;2023-04-06T02:56:25;23.80;;;14.13;;
23288;SDS011;11813;50.834;4.280;2023-04-06T02:58:51;32.17;;;13.63;;
23288;SDS011;11813;50.834;4.280;2023-04-06T03:01:17;24.17;;;13.87;;
23288;SDS011;11813;50.834;4.280;2023-04-06T03:03:42;23.57;;;13.43;;
23288;SDS011;11813;50.834;4.280;2023-04-06T03:06:08;21.20;;;12.67;;
23288;SDS011;11813;50.834;4.280;2023-04-06T03:08:34;27.50;;;13.13;;
23288;SDS011;11813;50.834;4.280;2023-04-06T03:11:00;24.53;;;13.10;;
23288;SDS011;11813;50.834;4.280;2023-04-06T03:13:25;30.37;;;13.90;;
23288;SDS011;11813;50.834;4.280;2023-04-06T03:15:51;31.30;;;13.83;;
23288;SDS011;11813;50.834;4.280;2023-04-06T03:18:20;23.40;;;13.57;;
23288;SDS011;11813;50.834;4.280;2023-04-06T03:20:47;28.80;;;13.17;;
23288;SDS011;11813;50.834;4.280;2023-04-06T03:23:12;27.53;;;13.70;;
23288;SDS011;11813;50.834;4.280;2023-04-06T03:25:38;32.83;;;13.63;;
23288;SDS011;11813;50.834;4.280;2023-04-06T03:28:07;27.47;;;14.17;;
23288;SDS011;11813;50.834;4.280;2023-04-06T03:30:33;25.93;;;13.50;;
23288;SDS011;11813;50.834;4.280;2023-04-06T03:32:59;23.67;;;13.40;;
23288;SDS011;11813;50.834;4.280;2023-04-06T03:35:25;22.40;;;13.43;;
23288;SDS011;11813;50.834;4.280;2023-04-06T03:37:50;27.43;;;13.17;;
23288;SDS011;11813;50.834;4.280;2023-04-06T03:40:16;25.00;;;12.73;;
23288;SDS011;11813;50.834;4.280;2023-04-06T03:42:42;23.80;;;13.97;;
23288;SDS011;11813;50.834;4.280;2023-04-06T03:45:08;39.40;;;14.73;;
23288;SDS011;11813;50.834;4.280;2023-04-06T03:47:34;28.57;;;13.30;;
23288;SDS011;11813;50.834;4.280;2023-04-06T03:49:59;21.93;;;12.90;;
23288;SDS011;11813;50.834;4.280;2023-04-06T03:52:25;22.30;;;13.17;;
23288;SDS011;11813;50.834;4.280;2023-04-06T03:54:51;22.20;;;12.23;;
23288;SDS011;11813;50.834;4.280;2023-04-06T03:57:17;21.23;;;12.27;;
23288;SDS011;11813;50.834;4.280;2023-04-06T03:59:42;23.47;;;13.27;;
23288;SDS011;11813;50.834;4.280;2023-04-06T04:02:08;21.97;;;12.57;;
23288;SDS011;11813;50.834;4.280;2023-04-06T04:04:34;23.20;;;12.30;;
23288;SDS011;11813;50.834;4.280;2023-04-06T04:06:59;28.90;;;12.97;;
23288;SDS011;11813;50.834;4.280;2023-04-06T04:09:25;23.53;;;13.07;;
23288;SDS011;11813;50.834;4.280;2023-04-06T04:11:51;30.10;;;12.53;;
23288;SDS011;11813;50.834;4.280;2023-04-06T04:14:16;29.57;;;13.40;;
23288;SDS011;11813;50.834;4.280;2023-04-06T04:16:42;26.53;;;13.10;;
23288;SDS011;11813;50.834;4.280;2023-04-06T04:19:07;31.30;;;13.27;;
23288;SDS011;11813;50.834;4.280;2023-04-06T04:21:33;28.57;;;14.17;;
23288;SDS011;11813;50.834;4.280;2023-04-06T04:23:59;26.10;;;14.03;;
23288;SDS011;11813;50.834;4.280;2023-04-06T04:26:24;30.10;;;13.37;;
23288;SDS011;11813;50.834;4.280;2023-04-06T04:28:50;46.70;;;15.23;;
23288;SDS011;11813;50.834;4.280;2023-04-06T04:31:16;25.90;;;13.90;;
23288;SDS011;11813;50.834;4.280;2023-04-06T04:33:46;21.03;;;13.20;;
23288;SDS011;11813;50.834;4.280;2023-04-06T04:36:12;29.07;;;15.33;;
23288;SDS011;11813;50.834;4.280;2023-04-06T04:38:37;25.67;;;15.23;;
23288;SDS011;11813;50.834;4.280;2023-04-06T04:41:03;26.07;;;15.10;;
23288;SDS011;11813;50.834;4.280;2023-04-06T04:43:29;26.70;;;15.20;;
23288;SDS011;11813;50.834;4.280;2023-04-06T04:45:54;29.47;;;15.60;;
23288;SDS011;11813;50.834;4.280;2023-04-06T04:48:20;24.93;;;15.53;;
23288;SDS011;11813;50.834;4.280;2023-04-06T04:50:46;25.03;;;15.63;;
23288;SDS011;11813;50.834;4.280;2023-04-06T04:53:11;23.07;;;14.27;;
23288;SDS011;11813;50.834;4.280;2023-04-06T04:55:37;26.40;;;15.97;;
23288;SDS011;11813;50.834;4.280;2023-04-06T04:58:02;25.83;;;15.93;;
23288;SDS011;11813;50.834;4.280;2023-04-06T05:00:28;26.50;;;15.77;;
23288;SDS011;11813;50.834;4.280;2023-04-06T05:02:54;28.17;;;15.93;;
23288;SDS011;11813;50.834;4.280;2023-04-06T05:05:20;27.77;;;16.37;;
23288;SDS011;11813;50.834;4.280;2023-04-06T05:07:45;26.30;;;16.70;;
23288;SDS011;11813;50.834;4.280;2023-04-06T05:10:11;34.70;;;17.13;;
23288;SDS011;11813;50.834;4.280;2023-04-06T05:12:37;26.10;;;16.73;;
23288;SDS011;11813;50.834;4.280;2023-04-06T05:15:03;26.60;;;17.13;;
23288;SDS011;11813;50.834;4.280;2023-04-06T05:17:29;29.67;;;16.80;;
23288;SDS011;11813;50.834;4.280;2023-04-06T05:19:55;28.97;;;17.73;;
23288;SDS011;11813;50.834;4.280;2023-04-06T05:22:20;26.27;;;16.73;;
23288;SDS011;11813;50.834;4.280;2023-04-06T05:24:46;28.03;;;16.63;;
23288;SDS011;11813;50.834;4.280;2023-04-06T05:27:12;28.40;;;16.57;;
23288;SDS011;11813;50.834;4.280;2023-04-06T05:29:37;26.97;;;15.67;;
23288;SDS011;11813;50.834;4.280;2023-04-06T05:32:03;29.77;;;16.37;;
23288;SDS011;11813;50.834;4.280;2023-04-06T05:34:29;29.90;;;15.77;;
23288;SDS011;11813;50.834;4.280;2023-04-06T05:36:54;29.33;;;16.00;;
23288;SDS011;11813;50.834;4.280;2023-04-06T05:39:20;28.83;;;16.40;;
23288;SDS011;11813;50.834;4.280;2023-04-06T05:41:46;27.17;;;15.63;;
23288;SDS011;11813;50.834;4.280;2023-04-06T05:44:11;25.10;;;15.97;;
23288;SDS011;11813;50.834;4.280;2023-04-06T05:46:37;30.03;;;17.30;;
23288;SDS011;11813;50.834;4.280;2023-04-06T05:49:03;26.57;;;16.50;;
23288;SDS011;11813;50.834;4.280;2023-04-06T05:51:28;26.93;;;16.70;;
23288;SDS011;11813;50.834;4.280;2023-04-06T05:53:54;39.90;;;17.10;;
23288;SDS011;11813;50.834;4.280;2023-04-06T05:56:19;28.43;;;16.53;;
23288;SDS011;11813;50.834;4.280;2023-04-06T05:58:45;28.63;;;17.47;;
23288;SDS011;11813;50.834;4.280;2023-04-06T06:01:11;30.27;;;18.30;;
23288;SDS011;11813;50.834;4.280;2023-04-06T06:03:36;29.83;;;18.43;;
23288;SDS011;11813;50.834;4.280;2023-04-06T06:06:03;30.10;;;16.90;;
23288;SDS011;11813;50.834;4.280;2023-04-06T06:08:29;27.70;;;16.97;;
23288;SDS011;11813;50.834;4.280;2023-04-06T06:10:55;29.30;;;18.37;;
23288;SDS011;11813;50.834;4.280;2023-04-06T06:13:21;29.70;;;17.67;;
23288;SDS011;11813;50.834;4.280;2023-04-06T06:15:48;31.60;;;17.43;;
23288;SDS011;11813;50.834;4.280;2023-04-06T06:18:13;34.63;;;18.07;;
23288;SDS011;11813;50.834;4.280;2023-04-06T06:20:39;29.53;;;18.03;;
23288;SDS011;11813;50.834;4.280;2023-04-06T06:23:05;36.53;;;18.17;;
23288;SDS011;11813;50.834;4.280;2023-04-06T06:25:32;32.80;;;18.37;;
23288;SDS011;11813;50.834;4.280;2023-04-06T06:27:57;29.87;;;18.40;;
23288;SDS011;11813;50.834;4.280;2023-04-06T06:30:24;37.93;;;19.13;;
23288;SDS011;11813;50.834;4.280;2023-04-06T06:32:50;36.60;;;17.63;;
23288;SDS011;11813;50.834;4.280;2023-04-06T06:35:16;31.53;;;18.40;;
23288;SDS011;11813;50.834;4.280;2023-04-06T06:37:42;30.37;;;18.50;;
23288;SDS011;11813;50.834;4.280;2023-04-06T06:40:10;33.60;;;17.97;;
23288;SDS011;11813;50.834;4.280;2023-04-06T06:42:38;34.70;;;19.10;;
23288;SDS011;11813;50.834;4.280;2023-04-06T06:45:05;32.77;;;18.37;;
23288;SDS011;11813;50.834;4.280;2023-04-06T06:47:32;32.60;;;19.47;;
23288;SDS011;11813;50.834;4.280;2023-04-06T06:49:57;38.77;;;19.17;;
23288;SDS011;11813;50.834;4.280;2023-04-06T06:52:23;40.73;;;19.00;;
23288;SDS011;11813;50.834;4.280;2023-04-06T06:54:49;31.10;;;18.30;;
23288;SDS011;11813;50.834;4.280;2023-04-06T06:57:15;35.37;;;19.33;;
23288;SDS011;11813;50.834;4.280;2023-04-06T06:59:40;32.70;;;18.13;;
23288;SDS011;11813;50.834;4.280;2023-04-06T07:02:06;38.00;;;20.37;;
23288;SDS011;11813;50.834;4.280;2023-04-06T07:04:32;35.93;;;20.20;;
23288;SDS011;11813;50.834;4.280;2023-04-06T07:06:57;31.27;;;18.67;;
23288;SDS011;11813;50.834;4.280;2023-04-06T07:09:23;33.80;;;18.37;;
23288;SDS011;11813;50.834;4.280;2023-04-06T07:11:48;33.87;;;18.97;;
23288;SDS011;11813;50.834;4.280;2023-04-06T07:14:15;40.60;;;18.37;;
23288;SDS011;11813;50.834;4.280;2023-04-06T07:16:42;31.73;;;18.03;;
23288;SDS011;11813;50.834;4.280;2023-04-06T07:19:10;36.07;;;19.00;;
23288;SDS011;11813;50.834;4.280;2023-04-06T07:21:36;35.00;;;20.43;;
23288;SDS011;11813;50.834;4.280;2023-04-06T07:24:01;32.93;;;19.43;;
23288;SDS011;11813;50.834;4.280;2023-04-06T07:26:27;37.20;;;18.27;;
23288;SDS011;11813;50.834;4.280;2023-04-06T07:28:53;36.43;;;18.03;;
23288;SDS011;11813;50.834;4.280;2023-04-06T07:31:18;27.63;;;17.00;;
23288;SDS011;11813;50.834;4.280;2023-04-06T07:33:45;33.63;;;16.60;;
23288;SDS011;11813;50.834;4.280;2023-04-06T07:36:12;29.17;;;16.20;;
23288;SDS011;11813;50.834;4.280;2023-04-06T07:38:37;29.80;;;14.33;;
23288;SDS011;11813;50.834;4.280;2023-04-06T07:41:03;26.07;;;14.37;;
23288;SDS011;11813;50.834;4.280;2023-04-06T07:43:29;30.10;;;14.27;;
23288;SDS011;11813;50.834;4.280;2023-04-06T07:45:55;27.93;;;15.23;;
23288;SDS011;11813;50.834;4.280;2023-04-06T07:48:22;24.70;;;14.03;;
23288;SDS011;11813;50.834;4.280;2023-04-06T07:50:48;25.60;;;13.57;;
23288;SDS011;11813;50.834;4.280;2023-04-06T07:53:13;25.57;;;13.40;;
23288;SDS011;11813;50.834;4.280;2023-04-06T07:55:39;22.43;;;12.87;;
23288;SDS011;11813;50.834;4.280;2023-04-06T07:58:05;21.03;;;12.50;;
23288;SDS011;11813;50.834;4.280;2023-04-06T08:00:30;22.67;;;11.93;;
23288;SDS011;11813;50.834;4.280;2023-04-06T08:02:56;23.40;;;13.07;;
23288;SDS011;11813;50.834;4.280;2023-04-06T08:05:22;27.10;;;12.10;;
23288;SDS011;11813;50.834;4.280;2023-04-06T08:07:47;28.00;;;12.63;;
23288;SDS011;11813;50.834;4.280;2023-04-06T08:10:13;27.47;;;13.27;;
23288;SDS011;11813;50.834;4.280;2023-04-06T08:12:39;25.30;;;12.50;;
23288;SDS011;11813;50.834;4.280;2023-04-06T08:15:05;19.53;;;11.57;;
23288;SDS011;11813;50.834;4.280;2023-04-06T08:17:33;23.87;;;12.43;;
23288;SDS011;11813;50.834;4.280;2023-04-06T08:20:00;24.83;;;12.77;;
23288;SDS011;11813;50.834;4.280;2023-04-06T08:22:25;25.00;;;12.13;;
23288;SDS011;11813;50.834;4.280;2023-04-06T08:24:51;21.13;;;11.40;;
23288;SDS011;11813;50.834;4.280;2023-04-06T08:27:18;21.07;;;10.00;;
23288;SDS011;11813;50.834;4.280;2023-04-06T08:29:43;21.47;;;10.33;;
23288;SDS011;11813;50.834;4.280;2023-04-06T08:32:09;16.13;;;10.50;;
23288;SDS011;11813;50.834;4.280;2023-04-06T08:34:35;22.30;;;11.77;;
23288;SDS011;11813;50.834;4.280;2023-04-06T08:37:01;19.13;;;10.67;;
23288;SDS011;11813;50.834;4.280;2023-04-06T08:39:27;20.13;;;9.80;;
23288;SDS011;11813;50.834;4.280;2023-04-06T08:41:55;19.37;;;11.13;;
23288;SDS011;11813;50.834;4.280;2023-04-06T08:44:25;23.43;;;10.33;;
23288;SDS011;11813;50.834;4.280;2023-04-06T08:46:51;19.77;;;10.60;;
23288;SDS011;11813;50.834;4.280;2023-04-06T08:49:17;18.57;;;10.60;;
23288;SDS011;11813;50.834;4.280;2023-04-06T08:51:44;17.70;;;9.80;;
23288;SDS011;11813;50.834;4.280;2023-04-06T08:54:10;22.53;;;10.73;;
23288;SDS011;11813;50.834;4.280;2023-04-06T08:56:37;19.37;;;10.97;;
23288;SDS011;11813;50.834;4.280;2023-04-06T08:59:03;23.20;;;12.13;;
23288;SDS011;11813;50.834;4.280;2023-04-06T09:01:30;24.90;;;11.50;;
23288;SDS011;11813;50.834;4.280;2023-04-06T09:03:58;18.33;;;10.87;;
23288;SDS011;11813;50.834;4.280;2023-04-06T09:06:26;21.70;;;11.47;;
23288;SDS011;11813;50.834;4.280;2023-04-06T09:08:55;23.60;;;11.87;;
23288;SDS011;11813;50.834;4.280;2023-04-06T09:11:21;20.90;;;11.57;;
23288;SDS011;11813;50.834;4.280;2023-04-06T09:13:48;22.53;;;11.83;;
23288;SDS011;11813;50.834;4.280;2023-04-06T09:16:19;19.20;;;11.73;;
23288;SDS011;11813;50.834;4.280;2023-04-06T09:18:45;22.07;;;12.23;;
23288;SDS011;11813;50.834;4.280;2023-04-06T09:21:11;22.80;;;10.93;;
23288;SDS011;11813;50.834;4.280;2023-04-06T09:23:37;21.50;;;11.80;;
23288;SDS011;11813;50.834;4.280;2023-04-06T09:26:10;22.20;;;11.87;;
23288;SDS011;11813;50.834;4.280;2023-04-06T09:28:50;21.80;;;11.93;;
23288;SDS011;11813;50.834;4.280;2023-04-06T09:31:29;21.87;;;11.40;;
23288;SDS011;11813;50.834;4.280;2023-04-06T09:33:59;20.00;;;11.17;;
23288;SDS011;11813;50.834;4.280;2023-04-06T09:36:29;24.57;;;11.00;;
23288;SDS011;11813;50.834;4.280;2023-04-06T09:39:03;20.93;;;11.83;;
23288;SDS011;11813;50.834;4.280;2023-04-06T09:41:30;19.57;;;11.40;;
23288;SDS011;11813;50.834;4.280;2023-04-06T09:46:35;18.73;;;10.83;;
23288;SDS011;11813;50.834;4.280;2023-04-06T09:49:05;19.37;;;10.20;;
23288;SDS011;11813;50.834;4.280;2023-04-06T09:54:05;18.90;;;10.67;;
23288;SDS011;11813;50.834;4.280;2023-04-06T09:57:20;15.77;;;10.17;;
23288;SDS011;11813;50.834;4.280;2023-04-06T09:59:26;22.50;;;10.70;;
23288;SDS011;11813;50.834;4.280;2023-04-06T10:01:54;20.03;;;11.40;;
23288;SDS011;11813;50.834;4.280;2023-04-06T10:07:08;18.00;;;9.77;;
23288;SDS011;11813;50.834;4.280;2023-04-06T10:09:36;19.93;;;9.80;;
23288;SDS011;11813;50.834;4.280;2023-04-06T10:12:03;16.93;;;10.47;;
23288;SDS011;11813;50.834;4.280;2023-04-06T10:14:31;18.00;;;10.70;;
23288;SDS011;11813;50.834;4.280;2023-04-06T10:17:02;15.17;;;9.13;;
23288;SDS011;11813;50.834;4.280;2023-04-06T10:19:36;18.33;;;10.77;;
23288;SDS011;11813;50.834;4.280;2023-04-06T10:22:36;17.27;;;9.73;;
23288;SDS011;11813;50.834;4.280;2023-04-06T10:25:08;19.47;;;10.80;;
23288;SDS011;11813;50.834;4.280;2023-04-06T10:27:34;21.63;;;10.80;;
23288;SDS011;11813;50.834;4.280;2023-04-06T10:30:03;17.30;;;10.50;;
23288;SDS011;11813;50.834;4.280;2023-04-06T10:32:34;18.70;;;11.27;;
23288;SDS011;11813;50.834;4.280;2023-04-06T10:35:07;19.43;;;10.30;;
23288;SDS011;11813;50.834;4.280;2023-04-06T10:37:52;17.77;;;10.57;;
23288;SDS011;11813;50.834;4.280;2023-04-06T10:40:22;18.60;;;10.70;;
23288;SDS011;11813;50.834;4.280;2023-04-06T10:42:49;20.20;;;11.10;;
23288;SDS011;11813;50.834;4.280;2023-04-06T10:45:23;21.67;;;11.93;;
23288;SDS011;11813;50.834;4.280;2023-04-06T10:47:51;18.73;;;11.33;;
23288;SDS011;11813;50.834;4.280;2023-04-06T10:50:18;18.27;;;11.60;;
23288;SDS011;11813;50.834;4.280;2023-04-06T10:52:44;22.13;;;12.23;;
23288;SDS011;11813;50.834;4.280;2023-04-06T10:55:11;19.40;;;10.93;;
23288;SDS011;11813;50.834;4.280;2023-04-06T10:57:38;15.03;;;10.07;;
23288;SDS011;11813;50.834;4.280;2023-04-06T11:00:07;17.17;;;11.00;;
23288;SDS011;11813;50.834;4.280;2023-04-06T11:02:34;20.07;;;11.87;;
23288;SDS011;11813;50.834;4.280;2023-04-06T11:05:02;20.63;;;11.17;;
23288;SDS011;11813;50.834;4.280;2023-04-06T11:07:28;17.80;;;10.63;;
23288;SDS011;11813;50.834;4.280;2023-04-06T11:09:55;19.07;;;11.43;;
23288;SDS011;11813;50.834;4.280;2023-04-06T11:12:30;22.47;;;11.70;;
23288;SDS011;11813;50.834;4.280;2023-04-06T11:15:02;21.30;;;11.73;;
23288;SDS011;11813;50.834;4.280;2023-04-06T11:17:33;18.73;;;11.53;;
23288;SDS011;11813;50.834;4.280;2023-04-06T11:19:59;20.10;;;11.40;;
23288;SDS011;11813;50.834;4.280;2023-04-06T11:22:25;19.80;;;12.07;;
23288;SDS011;11813;50.834;4.280;2023-04-06T11:24:51;19.57;;;11.60;;
23288;SDS011;11813;50.834;4.280;2023-04-06T11:27:18;18.73;;;10.83;;
23288;SDS011;11813;50.834;4.280;2023-04-06T11:29:45;18.60;;;11.70;;
23288;SDS011;11813;50.834;4.280;2023-04-06T11:32:11;22.90;;;12.60;;
23288;SDS011;11813;50.834;4.280;2023-04-06T11:34:46;16.37;;;10.77;;
23288;SDS011;11813;50.834;4.280;2023-04-06T11:37:13;17.97;;;11.20;;
23288;SDS011;11813;50.834;4.280;2023-04-06T11:42:06;19.20;;;11.23;;
23288;SDS011;11813;50.834;4.280;2023-04-06T11:47:05;21.53;;;12.73;;
23288;SDS011;11813;50.834;4.280;2023-04-06T11:49:33;20.97;;;12.33;;
23288;SDS011;11813;50.834;4.280;2023-04-06T11:52:01;19.53;;;12.20;;
23288;SDS011;11813;50.834;4.280;2023-04-06T11:56:59;16.13;;;11.07;;
23288;SDS011;11813;50.834;4.280;2023-04-06T11:59:26;21.70;;;12.90;;
23288;SDS011;11813;50.834;4.280;2023-04-06T12:01:52;21.73;;;13.20;;
23288;SDS011;11813;50.834;4.280;2023-04-06T12:04:18;20.60;;;13.17;;
23288;SDS011;11813;50.834;4.280;2023-04-06T12:06:44;22.13;;;12.10;;
23288;SDS011;11813;50.834;4.280;2023-04-06T12:09:10;22.83;;;13.77;;
23288;SDS011;11813;50.834;4.280;2023-04-06T12:11:35;21.57;;;12.17;;
23288;SDS011;11813;50.834;4.280;2023-04-06T12:14:01;22.83;;;12.27;;
23288;SDS011;11813;50.834;4.280;2023-04-06T12:16:29;20.80;;;12.13;;
23288;SDS011;11813;50.834;4.280;2023-04-06T12:18:59;24.03;;;13.57;;
23288;SDS011;11813;50.834;4.280;2023-04-06T12:21:26;19.93;;;11.60;;
23288;SDS011;11813;50.834;4.280;2023-04-06T12:23:53;19.53;;;12.23;;
23288;SDS011;11813;50.834;4.280;2023-04-06T12:26:19;18.00;;;12.43;;
23288;SDS011;11813;50.834;4.280;2023-04-06T12:28:45;22.27;;;12.90;;
23288;SDS011;11813;50.834;4.280;2023-04-06T12:31:18;19.17;;;12.53;;
23288;SDS011;11813;50.834;4.280;2023-04-06T12:33:49;24.10;;;13.60;;
23288;SDS011;11813;50.834;4.280;2023-04-06T12:36:18;22.17;;;12.97;;
23288;SDS011;11813;50.834;4.280;2023-04-06T12:38:45;18.43;;;12.37;;
23288;SDS011;11813;50.834;4.280;2023-04-06T12:41:12;21.77;;;12.80;;
23288;SDS011;11813;50.834;4.280;2023-04-06T12:43:40;19.40;;;12.23;;
23288;SDS011;11813;50.834;4.280;2023-04-06T12:46:07;17.07;;;11.23;;
23288;SDS011;11813;50.834;4.280;2023-04-06T12:48:33;19.73;;;12.60;;
23288;SDS011;11813;50.834;4.280;2023-04-06T12:51:00;18.93;;;11.60;;
23288;SDS011;11813;50.834;4.280;2023-04-06T12:53:27;20.67;;;12.93;;
23288;SDS011;11813;50.834;4.280;2023-04-06T12:55:53;20.20;;;12.97;;
23288;SDS011;11813;50.834;4.280;2023-04-06T12:58:20;19.30;;;12.90;;
23288;SDS011;11813;50.834;4.280;2023-04-06T13:00:47;21.00;;;12.13;;
23288;SDS011;11813;50.834;4.280;2023-04-06T13:03:13;20.27;;;13.53;;
23288;SDS011;11813;50.834;4.280;2023-04-06T13:05:46;21.87;;;13.33;;
23288;SDS011;11813;50.834;4.280;2023-04-06T13:08:12;20.33;;;12.97;;
23288;SDS011;11813;50.834;4.280;2023-04-06T13:10:43;26.33;;;15.07;;
23288;SDS011;11813;50.834;4.280;2023-04-06T13:13:09;25.77;;;14.87;;
23288;SDS011;11813;50.834;4.280;2023-04-06T13:15:35;22.60;;;14.53;;
23288;SDS011;11813;50.834;4.280;2023-04-06T13:18:01;26.93;;;15.90;;
23288;SDS011;11813;50.834;4.280;2023-04-06T13:20:27;25.77;;;15.17;;
23288;SDS011;11813;50.834;4.280;2023-04-06T13:22:53;26.77;;;14.80;;
23288;SDS011;11813;50.834;4.280;2023-04-06T13:25:19;24.50;;;15.90;;
23288;SDS011;11813;50.834;4.280;2023-04-06T13:27:45;22.97;;;14.67;;
23288;SDS011;11813;50.834;4.280;2023-04-06T13:30:12;27.60;;;14.57;;
23288;SDS011;11813;50.834;4.280;2023-04-06T13:32:38;24.90;;;15.83;;
23288;SDS011;11813;50.834;4.280;2023-04-06T13:35:04;24.97;;;14.90;;
23288;SDS011;11813;50.834;4.280;2023-04-06T13:37:31;24.30;;;14.33;;
23288;SDS011;11813;50.834;4.280;2023-04-06T13:39:57;19.40;;;14.27;;
23288;SDS011;11813;50.834;4.280;2023-04-06T13:42:23;22.27;;;14.93;;
23288;SDS011;11813;50.834;4.280;2023-04-06T13:44:48;26.20;;;15.10;;
23288;SDS011;11813;50.834;4.280;2023-04-06T13:47:15;26.07;;;14.57;;
23288;SDS011;11813;50.834;4.280;2023-04-06T13:49:41;20.63;;;14.63;;
23288;SDS011;11813;50.834;4.280;2023-04-06T13:52:07;22.60;;;15.03;;
23288;SDS011;11813;50.834;4.280;2023-04-06T13:54:34;22.50;;;14.27;;
23288;SDS011;11813;50.834;4.280;2023-04-06T13:57:00;21.13;;;13.47;;
23288;SDS011;11813;50.834;4.280;2023-04-06T13:59:31;18.97;;;13.80;;
23288;SDS011;11813;50.834;4.280;2023-04-06T14:01:57;22.63;;;15.43;;
23288;SDS011;11813;50.834;4.280;2023-04-06T14:04:23;21.67;;;14.77;;
23288;SDS011;11813;50.834;4.280;2023-04-06T14:06:48;22.13;;;14.93;;
23288;SDS011;11813;50.834;4.280;2023-04-06T14:09:14;27.17;;;16.00;;
23288;SDS011;11813;50.834;4.280;2023-04-06T14:11:40;24.50;;;15.47;;
23288;SDS011;11813;50.834;4.280;2023-04-06T14:14:05;26.77;;;17.33;;
23288;SDS011;11813;50.834;4.280;2023-04-06T14:16:31;27.70;;;15.67;;
23288;SDS011;11813;50.834;4.280;2023-04-06T14:18:57;25.57;;;16.60;;
23288;SDS011;11813;50.834;4.280;2023-04-06T14:21:23;26.23;;;16.50;;
23288;SDS011;11813;50.834;4.280;2023-04-06T14:23:49;25.67;;;17.03;;
23288;SDS011;11813;50.834;4.280;2023-04-06T14:26:14;25.77;;;17.00;;
23288;SDS011;11813;50.834;4.280;2023-04-06T14:28:41;26.07;;;16.77;;
23288;SDS011;11813;50.834;4.280;2023-04-06T14:31:10;24.70;;;16.27;;
23288;SDS011;11813;50.834;4.280;2023-04-06T14:33:37;23.40;;;16.17;;